createdAt,value
2018-12-11T00:00:53.206Z,0.00
2018-12-11T00:01:53.185Z,0.00
2018-12-11T00:02:53.178Z,0.00
2018-12-11T00:03:53.143Z,0.00
2018-12-11T00:04:53.116Z,0.00
2018-12-11T00:05:53.084Z,0.00
2018-12-11T00:06:53.062Z,0.00
2018-12-11T00:07:53.043Z,0.00
2018-12-11T00:08:53.011Z,0.00
2018-12-11T00:09:53.002Z,0.00
2018-12-11T00:10:52.966Z,0.00
2018-12-11T00:11:52.940Z,0.00
2018-12-11T00:12:53.189Z,0.00
2018-12-11T00:13:52.895Z,0.00
2018-12-11T00:14:52.873Z,0.00
2018-12-11T00:15:52.849Z,0.00
2018-12-11T00:16:52.819Z,0.00
2018-12-11T00:17:52.795Z,0.00
2018-12-11T00:18:52.771Z,0.00
2018-12-11T00:19:52.751Z,0.00
2018-12-11T00:20:52.884Z,0.00
2018-12-11T00:21:52.697Z,0.00
2018-12-11T00:22:52.679Z,0.00
2018-12-11T00:23:52.658Z,0.00
2018-12-11T00:24:53.437Z,0.00
2018-12-11T00:25:52.604Z,0.00
2018-12-11T00:26:53.295Z,0.00
2018-12-11T00:27:52.550Z,0.00
2018-12-11T00:28:53.181Z,0.00
2018-12-11T00:29:52.564Z,0.00
2018-12-11T00:30:52.485Z,0.00
2018-12-11T00:31:52.464Z,0.00
2018-12-11T00:32:52.437Z,0.00
2018-12-11T00:33:52.407Z,0.00
2018-12-11T00:34:52.382Z,0.00
2018-12-11T00:35:52.366Z,0.00
2018-12-11T00:36:52.333Z,0.00
2018-12-11T00:37:52.343Z,0.00
2018-12-11T00:38:52.290Z,0.00
2018-12-11T00:39:52.266Z,0.00
2018-12-11T00:40:52.245Z,0.00
2018-12-11T00:41:52.216Z,0.00
2018-12-11T00:42:52.190Z,0.00
2018-12-11T00:43:52.172Z,0.00
2018-12-11T00:44:52.142Z,0.00
2018-12-11T00:45:52.118Z,0.00
2018-12-11T00:46:52.095Z,0.00
2018-12-11T00:47:52.069Z,0.00
2018-12-11T00:48:52.044Z,0.00
2018-12-11T00:49:52.022Z,0.00
2018-12-11T00:50:51.996Z,0.00
2018-12-11T00:51:51.976Z,0.00
2018-12-11T00:52:51.954Z,0.00
2018-12-11T00:53:51.928Z,0.00
2018-12-11T00:54:51.899Z,0.00
2018-12-11T00:55:51.874Z,0.00
2018-12-11T00:56:51.852Z,0.00
2018-12-11T00:57:51.826Z,0.00
2018-12-11T00:58:51.800Z,0.00
2018-12-11T00:59:51.778Z,0.00
2018-12-11T01:00:51.755Z,0.00
2018-12-11T01:01:51.729Z,0.00
2018-12-11T01:02:51.710Z,0.00
2018-12-11T01:03:51.684Z,0.00
2018-12-11T01:04:51.658Z,0.00
2018-12-11T01:05:51.639Z,0.00
2018-12-11T01:06:51.617Z,0.00
2018-12-11T01:07:51.586Z,0.00
2018-12-11T01:08:51.562Z,0.00
2018-12-11T01:09:51.536Z,0.00
2018-12-11T01:10:51.518Z,0.00
2018-12-11T01:11:51.506Z,0.00
2018-12-11T01:12:51.467Z,0.00
2018-12-11T01:13:51.439Z,0.00
2018-12-11T01:14:51.419Z,0.00
2018-12-11T01:15:51.403Z,0.00
2018-12-11T01:16:51.371Z,0.00
2018-12-11T01:17:52.306Z,0.00
2018-12-11T01:18:51.322Z,0.00
2018-12-11T01:19:51.292Z,0.00
2018-12-11T01:20:51.267Z,0.00
2018-12-11T01:21:51.251Z,0.00
2018-12-11T01:22:51.220Z,0.00
2018-12-11T01:23:51.194Z,0.00
2018-12-11T01:24:51.181Z,0.00
2018-12-11T01:25:51.143Z,0.00
2018-12-11T01:26:51.125Z,0.00
2018-12-11T01:27:51.103Z,0.00
2018-12-11T01:28:51.073Z,0.00
2018-12-11T01:29:51.050Z,0.00
2018-12-11T01:30:51.026Z,0.00
2018-12-11T01:31:50.993Z,0.00
2018-12-11T01:32:50.978Z,0.00
2018-12-11T01:33:50.946Z,0.00
2018-12-11T01:34:50.925Z,0.00
2018-12-11T01:35:50.900Z,0.00
2018-12-11T01:36:50.878Z,0.00
2018-12-11T01:37:50.852Z,0.00
2018-12-11T01:38:50.836Z,0.00
2018-12-11T01:39:50.822Z,0.00
2018-12-11T01:40:50.778Z,0.00
2018-12-11T01:41:50.749Z,0.00
2018-12-11T01:42:50.729Z,0.00
2018-12-11T01:43:50.710Z,0.00
2018-12-11T01:44:50.679Z,0.00
2018-12-11T01:45:50.656Z,0.00
2018-12-11T01:46:50.635Z,0.00
2018-12-11T01:47:50.605Z,0.00
2018-12-11T01:48:50.589Z,0.00
2018-12-11T01:49:50.564Z,0.00
2018-12-11T01:50:50.538Z,0.00
2018-12-11T01:51:50.512Z,0.00
2018-12-11T01:52:50.480Z,0.00
2018-12-11T01:53:50.464Z,0.00
2018-12-11T01:54:50.432Z,0.00
2018-12-11T01:55:50.415Z,0.00
2018-12-11T01:56:50.384Z,0.00
2018-12-11T01:57:50.368Z,0.00
2018-12-11T01:58:50.346Z,0.00
2018-12-11T01:59:50.327Z,0.00
2018-12-11T02:00:50.288Z,0.00
2018-12-11T02:01:50.269Z,0.00
2018-12-11T02:02:50.237Z,0.00
2018-12-11T02:03:50.218Z,0.00
2018-12-11T02:04:50.192Z,0.00
2018-12-11T02:05:50.172Z,0.00
2018-12-11T02:06:50.137Z,0.00
2018-12-11T02:07:50.114Z,0.00
2018-12-11T02:08:50.097Z,0.00
2018-12-11T02:09:50.069Z,0.00
2018-12-11T02:10:50.046Z,0.00
2018-12-11T02:11:50.027Z,0.00
2018-12-11T02:12:50.001Z,0.00
2018-12-11T02:13:49.976Z,0.00
2018-12-11T02:14:49.945Z,0.00
2018-12-11T02:15:49.993Z,0.00
2018-12-11T02:16:49.905Z,0.00
2018-12-11T02:17:49.875Z,0.00
2018-12-11T02:18:49.875Z,0.00
2018-12-11T02:19:49.830Z,0.00
2018-12-11T02:20:49.801Z,0.00
2018-12-11T02:21:49.782Z,0.00
2018-12-11T02:22:49.753Z,0.00
2018-12-11T02:23:49.730Z,0.00
2018-12-11T02:24:50.373Z,0.00
2018-12-11T02:25:49.684Z,0.00
2018-12-11T02:26:49.655Z,0.00
2018-12-11T02:27:49.633Z,0.00
2018-12-11T02:28:49.606Z,0.00
2018-12-11T02:29:49.587Z,0.00
2018-12-11T02:30:49.558Z,0.00
2018-12-11T02:31:49.537Z,0.00
2018-12-11T02:32:49.515Z,0.00
2018-12-11T02:33:49.494Z,0.00
2018-12-11T02:34:49.466Z,0.00
2018-12-11T02:35:49.438Z,0.00
2018-12-11T02:36:49.416Z,0.00
2018-12-11T02:37:49.391Z,0.00
2018-12-11T02:38:49.370Z,0.00
2018-12-11T02:39:49.340Z,0.00
2018-12-11T02:40:49.327Z,0.00
2018-12-11T02:41:49.293Z,0.00
2018-12-11T02:42:49.266Z,0.00
2018-12-11T02:43:49.247Z,0.00
2018-12-11T02:44:49.221Z,0.00
2018-12-11T02:45:49.193Z,0.00
2018-12-11T02:46:49.190Z,0.00
2018-12-11T02:47:49.143Z,0.00
2018-12-11T02:48:49.122Z,0.00
2018-12-11T02:49:49.101Z,0.00
2018-12-11T02:50:49.079Z,0.00
2018-12-11T02:51:49.053Z,0.00
2018-12-11T02:52:49.024Z,0.00
2018-12-11T02:53:49.000Z,0.00
2018-12-11T02:54:48.982Z,0.00
2018-12-11T02:55:48.956Z,0.00
2018-12-11T02:56:48.927Z,0.00
2018-12-11T02:57:48.907Z,0.00
2018-12-11T02:58:48.876Z,0.00
2018-12-11T02:59:48.857Z,0.00
2018-12-11T03:00:48.835Z,0.00
2018-12-11T03:01:48.812Z,0.00
2018-12-11T03:02:48.783Z,0.00
2018-12-11T03:03:48.764Z,0.00
2018-12-11T03:04:48.741Z,0.00
2018-12-11T03:05:48.711Z,0.00
2018-12-11T03:06:48.683Z,0.00
2018-12-11T03:07:48.656Z,0.00
2018-12-11T03:08:48.639Z,0.00
2018-12-11T03:09:48.609Z,0.00
2018-12-11T03:10:48.611Z,0.00
2018-12-11T03:11:48.567Z,0.00
2018-12-11T03:12:48.541Z,0.00
2018-12-11T03:13:48.515Z,0.00
2018-12-11T03:14:48.487Z,0.00
2018-12-11T03:15:48.464Z,0.00
2018-12-11T03:16:48.435Z,0.00
2018-12-11T03:17:48.416Z,0.00
2018-12-11T03:18:48.398Z,0.00
2018-12-11T03:19:48.364Z,0.00
2018-12-11T03:20:48.347Z,0.00
2018-12-11T03:21:48.317Z,0.00
2018-12-11T03:22:48.294Z,0.00
2018-12-11T03:23:48.277Z,0.00
2018-12-11T03:24:48.831Z,0.00
2018-12-11T03:25:48.220Z,0.00
2018-12-11T03:26:48.205Z,0.00
2018-12-11T03:27:48.843Z,0.00
2018-12-11T03:28:48.150Z,0.00
2018-12-11T03:29:48.121Z,0.00
2018-12-11T03:30:48.104Z,0.00
2018-12-11T03:31:48.073Z,0.00
2018-12-11T03:32:48.055Z,0.00
2018-12-11T03:33:48.037Z,0.00
2018-12-11T03:34:48.017Z,0.00
2018-12-11T03:35:47.980Z,0.00
2018-12-11T03:36:47.954Z,0.00
2018-12-11T03:37:47.923Z,0.00
2018-12-11T03:38:47.899Z,0.00
2018-12-11T03:39:47.880Z,0.00
2018-12-11T03:40:47.849Z,0.00
2018-12-11T03:41:47.826Z,0.00
2018-12-11T03:42:47.800Z,0.00
2018-12-11T03:43:47.781Z,0.00
2018-12-11T03:44:47.752Z,0.00
2018-12-11T03:45:47.746Z,0.00
2018-12-11T03:46:47.700Z,0.00
2018-12-11T03:47:47.680Z,0.00
2018-12-11T03:48:47.654Z,0.00
2018-12-11T03:49:47.631Z,0.00
2018-12-11T03:50:47.607Z,0.00
2018-12-11T03:51:47.578Z,0.00
2018-12-11T03:52:47.552Z,0.00
2018-12-11T03:53:47.539Z,0.00
2018-12-11T03:54:47.508Z,0.00
2018-12-11T03:55:47.486Z,0.00
2018-12-11T03:56:47.457Z,0.00
2018-12-11T03:57:47.438Z,0.00
2018-12-11T03:58:47.416Z,0.00
2018-12-11T03:59:47.390Z,0.00
2018-12-11T04:00:47.359Z,0.00
2018-12-11T04:01:47.339Z,0.00
2018-12-11T04:02:47.309Z,0.00
2018-12-11T04:03:47.288Z,0.00
2018-12-11T04:04:47.258Z,0.00
2018-12-11T04:05:47.235Z,0.00
2018-12-11T04:06:47.215Z,0.00
2018-12-11T04:07:47.195Z,0.00
2018-12-11T04:08:47.173Z,0.00
2018-12-11T04:09:47.137Z,0.00
2018-12-11T04:10:47.112Z,0.00
2018-12-11T04:11:47.087Z,0.00
2018-12-11T04:12:47.065Z,0.00
2018-12-11T04:13:47.040Z,0.00
2018-12-11T04:14:47.014Z,0.00
2018-12-11T04:15:46.995Z,0.00
2018-12-11T04:16:46.968Z,0.00
2018-12-11T04:17:46.941Z,0.00
2018-12-11T04:18:46.922Z,0.00
2018-12-11T04:19:48.785Z,0.00
2018-12-11T04:20:46.867Z,0.00
2018-12-11T04:21:46.885Z,0.00
2018-12-11T04:22:46.819Z,0.00
2018-12-11T04:23:46.795Z,0.00
2018-12-11T04:24:46.771Z,0.00
2018-12-11T04:25:46.750Z,0.00
2018-12-11T04:26:46.721Z,0.00
2018-12-11T04:27:46.692Z,0.00
2018-12-11T04:28:46.673Z,0.00
2018-12-11T04:29:46.644Z,0.00
2018-12-11T04:30:46.629Z,0.00
2018-12-11T04:31:46.598Z,0.00
2018-12-11T04:32:46.570Z,0.00
2018-12-11T04:33:46.550Z,0.00
2018-12-11T04:34:46.525Z,0.00
2018-12-11T04:35:46.503Z,0.00
2018-12-11T04:36:46.474Z,0.00
2018-12-11T04:37:46.464Z,0.00
2018-12-11T04:38:46.424Z,0.00
2018-12-11T04:39:46.406Z,0.00
2018-12-11T04:40:46.378Z,0.00
2018-12-11T04:41:46.356Z,0.00
2018-12-11T04:42:46.329Z,0.00
2018-12-11T04:43:46.299Z,0.00
2018-12-11T04:44:46.274Z,0.00
2018-12-11T04:45:46.251Z,0.00
2018-12-11T04:46:46.236Z,0.00
2018-12-11T04:47:46.200Z,0.00
2018-12-11T04:48:46.177Z,0.00
2018-12-11T04:49:46.160Z,0.00
2018-12-11T04:50:46.139Z,0.00
2018-12-11T04:51:46.103Z,0.00
2018-12-11T04:52:46.077Z,0.00
2018-12-11T04:53:46.055Z,0.00
2018-12-11T04:54:46.039Z,0.00
2018-12-11T04:55:46.004Z,0.00
2018-12-11T04:56:45.982Z,0.00
2018-12-11T04:57:45.956Z,0.00
2018-12-11T04:58:45.935Z,0.00
2018-12-11T04:59:45.906Z,0.00
2018-12-11T05:00:45.881Z,0.00
2018-12-11T05:01:45.859Z,0.00
2018-12-11T05:02:45.837Z,0.00
2018-12-11T05:03:45.807Z,0.00
2018-12-11T05:04:45.782Z,0.00
2018-12-11T05:05:45.760Z,0.00
2018-12-11T05:06:45.744Z,0.00
2018-12-11T05:07:45.714Z,0.00
2018-12-11T05:08:45.692Z,0.00
2018-12-11T05:09:45.664Z,0.00
2018-12-11T05:10:45.642Z,0.00
2018-12-11T05:11:45.615Z,0.00
2018-12-11T05:12:45.590Z,0.00
2018-12-11T05:13:45.600Z,0.00
2018-12-11T05:14:45.538Z,0.00
2018-12-11T05:15:45.520Z,0.00
2018-12-11T05:16:45.503Z,0.00
2018-12-11T05:17:45.475Z,0.00
2018-12-11T05:18:45.449Z,0.00
2018-12-11T05:19:45.417Z,0.00
2018-12-11T05:20:45.394Z,0.00
2018-12-11T05:21:45.372Z,0.00
2018-12-11T05:22:45.346Z,0.00
2018-12-11T05:23:45.326Z,0.00
2018-12-11T05:24:45.297Z,0.00
2018-12-11T05:25:45.269Z,0.00
2018-12-11T05:26:45.262Z,0.00
2018-12-11T05:27:45.223Z,0.00
2018-12-11T05:28:45.245Z,0.00
2018-12-11T05:29:45.192Z,0.00
2018-12-11T05:30:45.153Z,0.00
2018-12-11T05:31:45.131Z,0.00
2018-12-11T05:32:45.109Z,0.00
2018-12-11T05:33:45.081Z,0.00
2018-12-11T05:34:45.061Z,0.00
2018-12-11T05:35:45.026Z,0.00
2018-12-11T05:36:45.009Z,0.00
2018-12-11T05:37:44.984Z,0.00
2018-12-11T05:38:44.966Z,0.00
2018-12-11T05:39:44.937Z,0.00
2018-12-11T05:40:44.904Z,0.00
2018-12-11T05:41:44.888Z,0.00
2018-12-11T05:42:44.858Z,0.00
2018-12-11T05:43:44.831Z,0.00
2018-12-11T05:44:44.809Z,0.00
2018-12-11T05:45:44.796Z,0.00
2018-12-11T05:46:44.780Z,0.00
2018-12-11T05:47:44.739Z,0.00
2018-12-11T05:48:44.716Z,0.00
2018-12-11T05:49:44.690Z,0.00
2018-12-11T05:50:44.665Z,0.00
2018-12-11T05:51:44.640Z,0.00
2018-12-11T05:52:44.610Z,0.00
2018-12-11T05:53:44.594Z,0.00
2018-12-11T05:54:44.572Z,0.00
2018-12-11T05:55:44.546Z,0.00
2018-12-11T05:56:44.522Z,0.00
2018-12-11T05:57:44.497Z,0.00
2018-12-11T05:58:44.467Z,0.00
2018-12-11T05:59:44.442Z,0.00
2018-12-11T06:00:44.416Z,0.00
2018-12-11T06:01:44.391Z,0.00
2018-12-11T06:02:44.372Z,0.00
2018-12-11T06:03:44.349Z,0.00
2018-12-11T06:04:44.325Z,0.00
2018-12-11T06:05:44.302Z,0.00
2018-12-11T06:06:44.280Z,0.00
2018-12-11T06:07:44.251Z,0.00
2018-12-11T06:08:44.222Z,0.00
2018-12-11T06:09:44.203Z,0.00
2018-12-11T06:10:44.197Z,0.00
2018-12-11T06:11:44.145Z,0.00
2018-12-11T06:12:44.128Z,0.00
2018-12-11T06:13:44.115Z,0.00
2018-12-11T06:14:44.075Z,0.00
2018-12-11T06:15:44.058Z,0.00
2018-12-11T06:16:44.030Z,0.00
2018-12-11T06:17:44.000Z,0.00
2018-12-11T06:18:43.981Z,0.00
2018-12-11T06:19:43.948Z,0.00
2018-12-11T06:20:43.928Z,0.00
2018-12-11T06:21:43.904Z,0.00
2018-12-11T06:22:43.876Z,0.00
2018-12-11T06:23:43.854Z,0.00
2018-12-11T06:24:43.831Z,0.00
2018-12-11T06:25:43.806Z,0.00
2018-12-11T06:26:43.780Z,0.00
2018-12-11T06:27:43.758Z,0.00
2018-12-11T06:28:43.742Z,0.00
2018-12-11T06:29:43.705Z,0.00
2018-12-11T06:30:43.683Z,0.00
2018-12-11T06:31:43.661Z,0.00
2018-12-11T06:32:43.632Z,0.00
2018-12-11T06:33:43.610Z,0.00
2018-12-11T06:34:44.476Z,0.00
2018-12-11T06:35:43.565Z,0.00
2018-12-11T06:36:43.539Z,0.00
2018-12-11T06:37:43.517Z,0.00
2018-12-11T06:38:43.557Z,0.00
2018-12-11T06:39:43.461Z,0.00
2018-12-11T06:40:43.439Z,0.00
2018-12-11T06:41:43.414Z,0.00
2018-12-11T06:42:43.388Z,0.00
2018-12-11T06:43:43.368Z,0.00
2018-12-11T06:44:43.340Z,0.00
2018-12-11T06:45:43.324Z,0.00
2018-12-11T06:46:43.298Z,0.00
2018-12-11T06:47:43.297Z,0.00
2018-12-11T06:48:43.247Z,0.00
2018-12-11T06:49:43.218Z,0.00
2018-12-11T06:50:43.199Z,0.00
2018-12-11T06:51:43.176Z,0.00
2018-12-11T06:52:43.144Z,0.00
2018-12-11T06:53:43.126Z,0.00
2018-12-11T06:54:43.100Z,0.00
2018-12-11T06:55:43.071Z,0.00
2018-12-11T06:56:43.053Z,0.00
2018-12-11T06:57:43.029Z,0.00
2018-12-11T06:58:42.997Z,0.00
2018-12-11T06:59:42.978Z,0.00
2018-12-11T07:00:42.965Z,0.00
2018-12-11T07:01:42.930Z,0.00
2018-12-11T07:02:42.899Z,0.00
2018-12-11T07:03:42.873Z,5.63
2018-12-11T07:04:42.854Z,5.63
2018-12-11T07:05:42.829Z,5.63
2018-12-11T07:06:42.800Z,5.63
2018-12-11T07:07:42.777Z,5.63
2018-12-11T07:08:42.752Z,5.63
2018-12-11T07:09:42.733Z,11.25
2018-12-11T07:10:42.708Z,11.25
2018-12-11T07:11:42.679Z,11.25
2018-12-11T07:12:42.657Z,11.25
2018-12-11T07:13:42.634Z,11.25
2018-12-11T07:14:42.602Z,11.25
2018-12-11T07:15:42.580Z,11.25
2018-12-11T07:16:42.561Z,16.88
2018-12-11T07:17:42.532Z,16.88
2018-12-11T07:18:42.503Z,16.88
2018-12-11T07:19:42.481Z,22.50
2018-12-11T07:20:42.455Z,22.50
2018-12-11T07:21:42.439Z,22.50
2018-12-11T07:22:42.407Z,22.50
2018-12-11T07:23:42.388Z,28.13
2018-12-11T07:24:42.362Z,28.13
2018-12-11T07:25:42.338Z,28.13
2018-12-11T07:26:42.314Z,33.75
2018-12-11T07:27:42.285Z,33.75
2018-12-11T07:28:42.260Z,33.75
2018-12-11T07:29:42.238Z,33.75
2018-12-11T07:30:42.212Z,33.75
2018-12-11T07:31:42.192Z,33.75
2018-12-11T07:32:42.166Z,39.38
2018-12-11T07:33:42.138Z,39.38
2018-12-11T07:34:42.110Z,45.00
2018-12-11T07:35:42.088Z,50.63
2018-12-11T07:36:42.068Z,56.25
2018-12-11T07:37:42.036Z,56.25
2018-12-11T07:38:42.014Z,56.25
2018-12-11T07:39:42.005Z,56.25
2018-12-11T07:40:41.973Z,56.25
2018-12-11T07:41:41.937Z,56.25
2018-12-11T07:42:41.913Z,50.63
2018-12-11T07:43:41.890Z,50.63
2018-12-11T07:44:41.868Z,50.63
2018-12-11T07:45:41.853Z,56.25
2018-12-11T07:46:41.813Z,56.25
2018-12-11T07:47:41.791Z,56.25
2018-12-11T07:48:41.769Z,56.25
2018-12-11T07:49:41.746Z,56.25
2018-12-11T07:50:41.722Z,56.25
2018-12-11T07:51:41.700Z,61.88
2018-12-11T07:52:41.671Z,61.88
2018-12-11T07:53:41.649Z,67.50
2018-12-11T07:54:41.621Z,73.13
2018-12-11T07:55:41.607Z,73.13
2018-12-11T07:56:41.576Z,73.13
2018-12-11T07:57:41.553Z,67.50
2018-12-11T07:58:41.531Z,67.50
2018-12-11T07:59:41.500Z,78.75
2018-12-11T08:00:41.473Z,84.38
2018-12-11T08:01:41.462Z,90.00
2018-12-11T08:02:41.423Z,101.25
2018-12-11T08:03:41.404Z,112.50
2018-12-11T08:04:41.378Z,118.13
2018-12-11T08:05:41.360Z,112.50
2018-12-11T08:06:41.335Z,112.50
2018-12-11T08:07:41.304Z,123.75
2018-12-11T08:08:41.285Z,118.13
2018-12-11T08:09:41.253Z,118.13
2018-12-11T08:10:41.237Z,135.00
2018-12-11T08:11:41.211Z,163.13
2018-12-11T08:12:41.181Z,180.00
2018-12-11T08:13:41.157Z,191.25
2018-12-11T08:14:41.138Z,208.13
2018-12-11T08:15:41.118Z,236.25
2018-12-11T08:16:41.082Z,247.50
2018-12-11T08:17:41.056Z,236.25
2018-12-11T08:18:41.035Z,219.38
2018-12-11T08:19:41.009Z,219.38
2018-12-11T08:20:40.989Z,168.75
2018-12-11T08:21:40.961Z,118.13
2018-12-11T08:22:40.949Z,90.00
2018-12-11T08:23:40.913Z,61.88
2018-12-11T08:24:40.896Z,56.25
2018-12-11T08:25:40.865Z,50.63
2018-12-11T08:26:40.839Z,39.38
2018-12-11T08:27:40.824Z,45.00
2018-12-11T08:28:40.792Z,50.63
2018-12-11T08:29:40.768Z,56.25
2018-12-11T08:30:40.752Z,61.88
2018-12-11T08:31:40.717Z,61.88
2018-12-11T08:32:40.694Z,61.88
2018-12-11T08:33:40.675Z,61.88
2018-12-11T08:34:40.647Z,61.88
2018-12-11T08:35:40.621Z,67.50
2018-12-11T08:36:40.595Z,78.75
2018-12-11T08:37:40.576Z,95.63
2018-12-11T08:38:40.557Z,106.88
2018-12-11T08:39:40.524Z,140.63
2018-12-11T08:40:40.504Z,163.13
2018-12-11T08:41:40.482Z,163.13
2018-12-11T08:42:40.456Z,163.13
2018-12-11T08:43:40.431Z,157.50
2018-12-11T08:44:40.405Z,163.13
2018-12-11T08:45:40.377Z,146.25
2018-12-11T08:46:40.354Z,146.25
2018-12-11T08:47:40.329Z,151.88
2018-12-11T08:48:40.304Z,163.13
2018-12-11T08:49:40.282Z,185.63
2018-12-11T08:50:40.263Z,208.13
2018-12-11T08:51:40.250Z,185.63
2018-12-11T08:52:40.214Z,168.75
2018-12-11T08:53:40.186Z,163.13
2018-12-11T08:54:40.164Z,157.50
2018-12-11T08:55:40.138Z,157.50
2018-12-11T08:56:40.109Z,163.13
2018-12-11T08:57:40.087Z,180.00
2018-12-11T08:58:40.068Z,180.00
2018-12-11T08:59:40.039Z,163.13
2018-12-11T09:00:40.017Z,151.88
2018-12-11T09:01:39.991Z,157.50
2018-12-11T09:02:39.962Z,157.50
2018-12-11T09:03:39.943Z,157.50
2018-12-11T09:04:41.348Z,157.50
2018-12-11T09:05:39.896Z,151.88
2018-12-11T09:06:39.892Z,157.50
2018-12-11T09:07:39.848Z,157.50
2018-12-11T09:08:39.819Z,163.13
2018-12-11T09:09:39.796Z,157.50
2018-12-11T09:10:39.771Z,163.13
2018-12-11T09:11:39.746Z,168.75
2018-12-11T09:12:39.721Z,180.00
2018-12-11T09:13:39.702Z,185.63
2018-12-11T09:14:39.679Z,191.25
2018-12-11T09:15:39.654Z,196.88
2018-12-11T09:16:39.625Z,236.25
2018-12-11T09:17:39.605Z,286.88
2018-12-11T09:18:39.574Z,331.88
2018-12-11T09:19:39.551Z,337.50
2018-12-11T09:20:39.533Z,326.25
2018-12-11T09:21:39.510Z,348.75
2018-12-11T09:22:39.475Z,337.50
2018-12-11T09:23:39.459Z,298.13
2018-12-11T09:24:39.430Z,253.13
2018-12-11T09:25:39.405Z,219.38
2018-12-11T09:26:39.393Z,225.00
2018-12-11T09:27:39.360Z,219.38
2018-12-11T09:28:39.335Z,225.00
2018-12-11T09:29:39.308Z,225.00
2018-12-11T09:30:39.286Z,225.00
2018-12-11T09:31:39.254Z,230.63
2018-12-11T09:32:39.245Z,241.88
2018-12-11T09:33:39.216Z,236.25
2018-12-11T09:34:39.186Z,219.38
2018-12-11T09:35:39.170Z,219.38
2018-12-11T09:36:39.148Z,225.00
2018-12-11T09:37:39.130Z,247.50
2018-12-11T09:38:39.098Z,275.63
2018-12-11T09:39:39.069Z,270.00
2018-12-11T09:40:39.064Z,264.38
2018-12-11T09:41:39.031Z,281.25
2018-12-11T09:42:39.007Z,303.75
2018-12-11T09:43:38.976Z,303.75
2018-12-11T09:44:38.954Z,298.13
2018-12-11T09:45:38.937Z,309.38
2018-12-11T09:46:38.905Z,326.25
2018-12-11T09:47:38.879Z,331.88
2018-12-11T09:48:38.864Z,343.13
2018-12-11T09:49:38.836Z,343.13
2018-12-11T09:50:38.809Z,348.75
2018-12-11T09:51:38.786Z,354.38
2018-12-11T09:52:38.764Z,360.00
2018-12-11T09:53:38.745Z,354.38
2018-12-11T09:54:38.722Z,337.50
2018-12-11T09:55:38.706Z,315.00
2018-12-11T09:56:38.675Z,286.88
2018-12-11T09:57:38.645Z,264.38
2018-12-11T09:58:38.620Z,264.38
2018-12-11T09:59:38.597Z,258.75
2018-12-11T10:00:38.606Z,258.75
2018-12-11T10:01:38.552Z,258.75
2018-12-11T10:02:38.527Z,270.00
2018-12-11T10:03:38.531Z,281.25
2018-12-11T10:04:38.511Z,309.38
2018-12-11T10:05:38.456Z,348.75
2018-12-11T10:06:38.430Z,376.88
2018-12-11T10:07:38.441Z,376.88
2018-12-11T10:08:38.393Z,399.38
2018-12-11T10:09:38.367Z,371.25
2018-12-11T10:10:38.344Z,326.25
2018-12-11T10:11:38.321Z,303.75
2018-12-11T10:12:38.299Z,303.75
2018-12-11T10:13:38.269Z,326.25
2018-12-11T10:14:38.239Z,360.00
2018-12-11T10:15:38.228Z,393.75
2018-12-11T10:16:38.196Z,421.88
2018-12-11T10:17:38.178Z,444.38
2018-12-11T10:18:38.159Z,410.63
2018-12-11T10:19:38.131Z,303.75
2018-12-11T10:20:38.125Z,219.38
2018-12-11T10:21:38.088Z,185.63
2018-12-11T10:22:38.058Z,168.75
2018-12-11T10:23:38.039Z,180.00
2018-12-11T10:24:38.016Z,151.88
2018-12-11T10:25:37.992Z,135.00
2018-12-11T10:26:37.977Z,118.13
2018-12-11T10:27:37.941Z,112.50
2018-12-11T10:28:37.921Z,101.25
2018-12-11T10:29:37.899Z,84.38
2018-12-11T10:30:37.873Z,78.75
2018-12-11T10:31:37.844Z,67.50
2018-12-11T10:32:37.825Z,78.75
2018-12-11T10:33:37.796Z,101.25
2018-12-11T10:34:37.783Z,129.38
2018-12-11T10:35:37.751Z,163.13
2018-12-11T10:36:37.732Z,196.88
2018-12-11T10:37:37.705Z,253.13
2018-12-11T10:38:37.678Z,315.00
2018-12-11T10:39:37.656Z,343.13
2018-12-11T10:40:37.634Z,393.75
2018-12-11T10:41:37.614Z,405.00
2018-12-11T10:42:37.584Z,421.88
2018-12-11T10:43:37.560Z,399.38
2018-12-11T10:44:37.541Z,360.00
2018-12-11T10:45:37.518Z,343.13
2018-12-11T10:46:37.493Z,343.13
2018-12-11T10:47:37.483Z,354.38
2018-12-11T10:48:37.445Z,382.50
2018-12-11T10:49:37.416Z,399.38
2018-12-11T10:50:37.397Z,365.63
2018-12-11T10:51:37.371Z,275.63
2018-12-11T10:52:37.345Z,320.63
2018-12-11T10:53:37.321Z,399.38
2018-12-11T10:54:37.312Z,427.50
2018-12-11T10:55:37.279Z,405.00
2018-12-11T10:56:37.260Z,410.63
2018-12-11T10:57:37.228Z,365.63
2018-12-11T10:58:37.203Z,365.63
2018-12-11T10:59:37.184Z,365.63
2018-12-11T11:00:37.155Z,365.63
2018-12-11T11:01:37.134Z,348.75
2018-12-11T11:02:37.108Z,343.13
2018-12-11T11:03:37.092Z,337.50
2018-12-11T11:04:37.066Z,309.38
2018-12-11T11:05:37.047Z,326.25
2018-12-11T11:06:37.016Z,286.88
2018-12-11T11:07:36.993Z,253.13
2018-12-11T11:08:36.970Z,253.13
2018-12-11T11:09:36.954Z,343.13
2018-12-11T11:10:36.921Z,393.75
2018-12-11T11:11:36.911Z,365.63
2018-12-11T11:12:36.883Z,371.25
2018-12-11T11:13:36.850Z,388.13
2018-12-11T11:14:36.865Z,382.50
2018-12-11T11:15:36.803Z,388.13
2018-12-11T11:16:36.785Z,410.63
2018-12-11T11:17:36.759Z,421.88
2018-12-11T11:18:36.739Z,450.00
2018-12-11T11:19:36.724Z,495.00
2018-12-11T11:20:36.693Z,483.75
2018-12-11T11:21:36.673Z,421.88
2018-12-11T11:22:36.645Z,371.25
2018-12-11T11:23:36.622Z,393.75
2018-12-11T11:24:36.596Z,388.13
2018-12-11T11:25:36.575Z,337.50
2018-12-11T11:26:36.549Z,298.13
2018-12-11T11:27:37.812Z,270.00
2018-12-11T11:28:36.502Z,253.13
2018-12-11T11:29:36.478Z,270.00
2018-12-11T11:30:36.460Z,270.00
2018-12-11T11:31:36.439Z,286.88
2018-12-11T11:32:36.420Z,270.00
2018-12-11T11:33:36.390Z,264.38
2018-12-11T11:34:36.362Z,258.75
2018-12-11T11:35:36.342Z,236.25
2018-12-11T11:36:36.316Z,230.63
2018-12-11T11:37:36.300Z,236.25
2018-12-11T11:38:36.282Z,247.50
2018-12-11T11:39:36.254Z,281.25
2018-12-11T11:40:36.231Z,337.50
2018-12-11T11:41:36.198Z,371.25
2018-12-11T11:42:36.234Z,376.88
2018-12-11T11:43:36.156Z,326.25
2018-12-11T11:44:36.131Z,281.25
2018-12-11T11:45:36.112Z,230.63
2018-12-11T11:46:36.089Z,174.38
2018-12-11T11:47:36.060Z,140.63
2018-12-11T11:48:36.035Z,140.63
2018-12-11T11:49:36.016Z,151.88
2018-12-11T11:50:35.997Z,146.25
2018-12-11T11:51:35.968Z,146.25
2018-12-11T11:52:35.943Z,185.63
2018-12-11T11:53:35.919Z,241.88
2018-12-11T11:54:35.897Z,247.50
2018-12-11T11:55:35.878Z,202.50
2018-12-11T11:56:35.849Z,174.38
2018-12-11T11:57:35.826Z,196.88
2018-12-11T11:58:35.810Z,236.25
2018-12-11T11:59:35.779Z,292.50
2018-12-11T12:00:35.760Z,298.13
2018-12-11T12:01:35.732Z,315.00
2018-12-11T12:02:35.712Z,331.88
2018-12-11T12:03:35.686Z,365.63
2018-12-11T12:04:35.665Z,371.25
2018-12-11T12:05:35.637Z,331.88
2018-12-11T12:06:35.621Z,315.00
2018-12-11T12:07:35.592Z,315.00
2018-12-11T12:08:35.573Z,286.88
2018-12-11T12:09:35.560Z,258.75
2018-12-11T12:10:35.531Z,241.88
2018-12-11T12:11:35.500Z,230.63
2018-12-11T12:12:36.869Z,225.00
2018-12-11T12:13:35.452Z,230.63
2018-12-11T12:14:35.433Z,241.88
2018-12-11T12:15:35.410Z,270.00
2018-12-11T12:16:35.384Z,286.88
2018-12-11T12:17:35.363Z,286.88
2018-12-11T12:18:35.335Z,298.13
2018-12-11T12:19:35.315Z,303.75
2018-12-11T12:20:35.293Z,281.25
2018-12-11T12:21:35.264Z,292.50
2018-12-11T12:22:35.241Z,292.50
2018-12-11T12:23:35.229Z,264.38
2018-12-11T12:24:35.201Z,247.50
2018-12-11T12:25:35.171Z,241.88
2018-12-11T12:26:35.155Z,241.88
2018-12-11T12:27:35.124Z,247.50
2018-12-11T12:28:35.111Z,253.13
2018-12-11T12:29:35.085Z,258.75
2018-12-11T12:30:35.081Z,270.00
2018-12-11T12:31:35.036Z,309.38
2018-12-11T12:32:35.009Z,315.00
2018-12-11T12:33:34.989Z,292.50
2018-12-11T12:34:34.966Z,286.88
2018-12-11T12:35:34.940Z,270.00
2018-12-11T12:36:34.914Z,236.25
2018-12-11T12:37:34.892Z,208.13
2018-12-11T12:38:34.865Z,202.50
2018-12-11T12:39:34.843Z,191.25
2018-12-11T12:40:34.824Z,191.25
2018-12-11T12:41:34.799Z,163.13
2018-12-11T12:42:34.795Z,146.25
2018-12-11T12:43:34.757Z,140.63
2018-12-11T12:44:34.732Z,146.25
2018-12-11T12:45:34.706Z,168.75
2018-12-11T12:46:34.680Z,196.88
2018-12-11T12:47:34.661Z,202.50
2018-12-11T12:48:34.633Z,208.13
2018-12-11T12:49:34.617Z,241.88
2018-12-11T12:50:34.594Z,230.63
2018-12-11T12:51:34.586Z,225.00
2018-12-11T12:52:34.543Z,236.25
2018-12-11T12:53:34.520Z,264.38
2018-12-11T12:54:34.495Z,303.75
2018-12-11T12:55:34.470Z,343.13
2018-12-11T12:56:34.448Z,326.25
2018-12-11T12:57:34.427Z,376.88